^^
Saratoga-Weather Station Historical Data
Daily Summary for May 22, 2020 Units:  English    Metric   Both
Daily Weekly Monthly Yearly Custom
  High: Low: Average:
Temperature: 39.6 °F 27.7 °F 32.4 °F
Dew Point: 32.7 °F 26.2 °F 28.9 °F
Humidity: 96% 71% 88%
Wind Speed: 8.1mph 0mph 0.4mph
Wind Gust: 11mph - -
Wind- - East
Pressure: 30.6 in 30.5 in -
Precipitation: 0.01 in    
Historical Graphs
 
 
Tabular Data for May 22, 2020
Time Temperature Dew Point Pressure Wind Wind Speed Wind Gust Humidity Rainfall Rate (Hourly) solar
00:00 30.6 °F 28.8 °F 30.6 in Calm     93% 0 in 0 W/m2
00:05 30.4 °F 28.9 °F 30.6 in Calm     94% 0 in 0 W/m2
00:10 30.2 °F 28.4 °F 30.6 in Calm     93% 0 in 0 W/m2
00:15 29.8 °F 28 °F 30.6 in Calm     93% 0 in 0 W/m2
00:20 29.8 °F 28 °F 30.6 in Calm     93% 0 in 0 W/m2
00:25 29.8 °F 28.4 °F 30.6 in Calm     94% 0 in 0 W/m2
00:30 29.7 °F 28.2 °F 30.6 in Calm     94% 0 in 0 W/m2
00:35 29.7 °F 28.2 °F 30.6 in Calm     94% 0 in 0 W/m2
00:40 29.7 °F 28.2 °F 30.6 in Calm     94% 0 in 0 W/m2
00:45 29.7 °F 28.2 °F 30.6 in Calm     94% 0 in 0 W/m2
00:50 29.5 °F 28 °F 30.6 in Calm     94% 0 in 0 W/m2
00:55 29.5 °F 28 °F 30.6 in Calm     94% 0 in 0 W/m2
01:00 29.5 °F 28 °F 30.6 in Calm     94% 0 in 0 W/m2
01:05 29.5 °F 28 °F 30.6 in Calm     94% 0 in 0 W/m2
01:11 29.5 °F 28 °F 30.6 in Calm     94% 0 in 0 W/m2
01:16 29.5 °F 28 °F 30.6 in Calm     94% 0 in 0 W/m2
01:21 29.3 °F 27.9 °F 30.6 in Calm     94% 0 in 0 W/m2
01:26 29.1 °F 27.7 °F 30.6 in Calm   1 mph 94% 0 in 0 W/m2
01:31 29.3 °F 27.9 °F 30.6 in Calm     94% 0 in 0 W/m2
01:36 29.3 °F 27.9 °F 30.6 in Calm     94% 0 in 0 W/m2
01:41 29.5 °F 28 °F 30.6 in Calm     94% 0 in 0 W/m2
01:46 29.3 °F 27.9 °F 30.6 in Calm     94% 0 in 0 W/m2
01:51 29.1 °F 27.7 °F 30.6 in Calm     94% 0 in 0 W/m2
01:56 28.9 °F 27.5 °F 30.6 in Calm     94% 0 in 0 W/m2
02:01 28.9 °F 27.5 °F 30.6 in Calm     94% 0 in 0 W/m2
02:06 28.8 °F 27.3 °F 30.6 in Calm     94% 0 in 0 W/m2
02:11 28.8 °F 27.3 °F 30.6 in Calm     94% 0 in 0 W/m2
02:16 28.8 °F 27.3 °F 30.6 in Calm     94% 0 in 0 W/m2
02:21 28.6 °F 27.1 °F 30.6 in Calm     94% 0 in 0 W/m2
02:26 28.6 °F 27.1 °F 30.6 in Calm     94% 0 in 0 W/m2
02:31 28.6 °F 27.3 °F 30.6 in Calm     95% 0 in 0 W/m2
02:36 28.6 °F 27.3 °F 30.6 in Calm     95% 0 in 0 W/m2
02:41 28.4 °F 27.1 °F 30.6 in Calm     95% 0 in 0 W/m2
02:46 28.4 °F 27.1 °F 30.6 in Calm     95% 0 in 0 W/m2
02:51 28.4 °F 27.1 °F 30.6 in Calm     95% 0 in 0 W/m2
02:56 28.4 °F 27.1 °F 30.6 in Calm     95% 0 in 0 W/m2
03:01 28.4 °F 27.1 °F 30.6 in Calm     95% 0 in 0 W/m2
03:06 28.4 °F 27.1 °F 30.6 in Calm     95% 0 in 0 W/m2
03:12 28.2 °F 27 °F 30.6 in Calm     95% 0 in 0 W/m2
03:17 28 °F 26.8 °F 30.6 in Calm     95% 0 in 0 W/m2
03:22 28 °F 26.8 °F 30.6 in Calm     95% 0 in 0 W/m2
03:27 28 °F 26.8 °F 30.6 in Calm     95% 0 in 0 W/m2
03:32 28 °F 26.8 °F 30.6 in Calm     95% 0 in 0 W/m2
03:37 28 °F 26.8 °F 30.6 in Calm     95% 0 in 0 W/m2
03:42 27.9 °F 26.6 °F 30.6 in Calm     95% 0 in 0 W/m2
03:47 28 °F 26.8 °F 30.6 in Calm     95% 0 in 0 W/m2
03:52 28 °F 26.8 °F 30.6 in Calm     95% 0 in 0 W/m2
03:57 28.2 °F 27 °F 30.6 in Calm     95% 0 in 0 W/m2
04:02 28.2 °F 27 °F 30.6 in Calm   2 mph 95% 0 in 0 W/m2
04:07 28.2 °F 27 °F 30.6 in Calm     95% 0 in 0 W/m2
04:12 28.2 °F 27 °F 30.6 in Calm   2 mph 95% 0 in 0 W/m2
04:17 28.2 °F 27 °F 30.6 in Calm     95% 0 in 0 W/m2
04:22 28.6 °F 27.3 °F 30.6 in Calm   1 mph 95% 0 in 0 W/m2
04:27 28.9 °F 27.7 °F 30.6 in Calm     95% 0 in 0 W/m2
04:32 29.1 °F 28 °F 30.6 in Calm     96% 0 in 0 W/m2
04:37 29.3 °F 28 °F 30.6 in Calm   1 mph 95% 0 in 0 W/m2
04:42 29.3 °F 28 °F 30.6 in Calm     95% 0 in 0 W/m2
04:47 29.5 °F 28.2 °F 30.6 in Calm   1 mph 95% 0 in 0 W/m2
04:52 29.3 °F 28 °F 30.6 in Calm   1 mph 95% 0 in 0 W/m2
04:57 29.3 °F 28 °F 30.6 in Calm   1 mph 95% 0 in 0 W/m2
05:02 29.3 °F 28 °F 30.6 in Calm     95% 0 in 0 W/m2
05:07 29.1 °F 27.7 °F 30.6 in Calm     94% 0 in 0 W/m2
05:12 28.9 °F 27.5 °F 30.6 in Calm     94% 0 in 0 W/m2
05:17 28.9 °F 27.5 °F 30.6 in Calm     94% 0 in 0 W/m2
05:22 28.8 °F 27.3 °F 30.6 in Calm     94% 0 in 0 W/m2
05:27 28.8 °F 27.3 °F 30.6 in Calm     94% 0 in 0 W/m2
05:32 28.8 °F 27.3 °F 30.6 in Calm     94% 0 in 0 W/m2
05:37 28.8 °F 27.3 °F 30.6 in Calm     94% 0 in 0 W/m2
05:42 28.8 °F 27.3 °F 30.6 in Calm     94% 0 in 0 W/m2
05:47 28.6 °F 27.1 °F 30.6 in Calm     94% 0 in 0 W/m2
05:52 28.8 °F 27.5 °F 30.6 in Calm     95% 0 in 0 W/m2
05:57 29.1 °F 27.9 °F 30.6 in Calm     95% 0 in 0 W/m2
06:02 29.1 °F 27.9 °F 30.6 in Calm     95% 0 in 0 W/m2
06:07 29.1 °F 27.9 °F 30.6 in Calm     95% 0 in 0 W/m2
06:12 29.3 °F 28 °F 30.6 in Calm     95% 0 in 0 W/m2
06:17 29.5 °F 28 °F 30.6 in Calm     94% 0 in 0 W/m2
06:22 29.5 °F 28 °F 30.6 in Calm     94% 0 in 0 W/m2
06:27 29.5 °F 28 °F 30.6 in Calm   1 mph 94% 0 in 0 W/m2
06:32 29.3 °F 27.9 °F 30.6 in Calm     94% 0 in 0 W/m2
06:37 29.3 °F 27.9 °F 30.6 in Calm     94% 0 in 0 W/m2
06:42 29.5 °F 28.2 °F 30.6 in Calm     95% 0 in 0 W/m2
06:47 29.5 °F 28 °F 30.6 in Calm     94% 0 in 0 W/m2
06:52 29.3 °F 27.9 °F 30.6 in Calm     94% 0 in 0 W/m2
06:57 29.1 °F 27.7 °F 30.6 in Calm     94% 0 in 0 W/m2
07:02 28.9 °F 27.5 °F 30.6 in Calm     94% 0 in 0 W/m2
07:07 28.9 °F 27.5 °F 30.6 in Calm     94% 0 in 0 W/m2
07:12 28.9 °F 27.5 °F 30.6 in Calm   1 mph 94% 0 in 0 W/m2
07:17 28.9 °F 27.5 °F 30.6 in Calm     94% 0 in 0 W/m2
07:22 28.9 °F 27.5 °F 30.6 in Calm     94% 0 in 0 W/m2
07:27 28.8 °F 27.3 °F 30.6 in Calm     94% 0 in 0 W/m2
07:32 28.8 °F 27.3 °F 30.6 in Calm     94% 0 in 0 W/m2
07:37 28.8 °F 27.3 °F 30.6 in Calm     94% 0 in 0 W/m2
07:42 28.8 °F 27.3 °F 30.6 in Calm     94% 0 in 0 W/m2
07:47 28.8 °F 27.3 °F 30.6 in Calm     94% 0 in 0 W/m2
07:52 28.8 °F 27.3 °F 30.6 in Calm     94% 0 in 0 W/m2
07:57 28.8 °F 27.3 °F 30.6 in Calm     94% 0 in 0 W/m2
08:02 28.6 °F 27.1 °F 30.6 in Calm     94% 0 in 0 W/m2
08:07 28.2 °F 26.4 °F 30.6 in Calm     93% 0 in 0 W/m2
08:12 28 °F 26.2 °F 30.6 in Calm     93% 0 in 0 W/m2
08:17 27.9 °F 26.4 °F 30.6 in Calm     94% 0 in 0 W/m2
08:22 27.7 °F 26.2 °F 30.6 in Calm     94% 0 in 0 W/m2
08:27 27.7 °F 26.2 °F 30.6 in Calm     94% 0 in 5 W/m2
08:32 27.7 °F 26.2 °F 30.6 in Calm     94% 0 in 7 W/m2
08:37 27.9 °F 26.4 °F 30.6 in Calm     94% 0 in 11 W/m2
08:42 28 °F 26.6 °F 30.6 in Calm     94% 0 in 11 W/m2
08:47 28 °F 26.6 °F 30.6 in Calm     94% 0 in 12 W/m2
08:52 28 °F 26.6 °F 30.6 in Calm   1 mph 94% 0 in 12 W/m2
08:57 28 °F 26.6 °F 30.6 in Calm     94% 0 in 14 W/m2
09:02 28.2 °F 26.8 °F 30.6 in Calm     94% 0 in 14 W/m2
09:07 28.4 °F 27 °F 30.6 in Calm     94% 0 in 16 W/m2
09:12 28.4 °F 27.1 °F 30.6 in Calm     95% 0 in 16 W/m2
09:17 28.6 °F 27.1 °F 30.6 in Calm     94% 0 in 18 W/m2
09:22 28.6 °F 27.1 °F 30.6 in Calm     94% 0 in 19 W/m2
09:27 28.6 °F 27.1 °F 30.6 in Calm     94% 0 in 19 W/m2
09:32 28.6 °F 27.1 °F 30.6 in Calm     94% 0 in 19 W/m2
09:37 28.6 °F 27.1 °F 30.6 in Calm     94% 0 in 25 W/m2
09:42 28.8 °F 27.3 °F 30.6 in Calm     94% 0 in 21 W/m2
09:47 28.8 °F 27.3 °F 30.6 in Calm     94% 0 in 21 W/m2
09:52 28.8 °F 27.3 °F 30.6 in Calm     94% 0 in 23 W/m2
09:57 28.9 °F 27.5 °F 30.6 in Calm     94% 0 in 21 W/m2
10:02 28.9 °F 27.5 °F 30.6 in Calm     94% 0 in 21 W/m2
10:08 29.1 °F 27.7 °F 30.6 in Calm     94% 0 in 23 W/m2
10:13 29.3 °F 27.9 °F 30.6 in Calm     94% 0 in 23 W/m2
10:18 29.5 °F 28.2 °F 30.6 in Calm     95% 0 in 23 W/m2
10:23 29.7 °F 28.2 °F 30.6 in Calm     94% 0 in 25 W/m2
10:28 29.8 °F 28.4 °F 30.6 in Calm     94% 0 in 25 W/m2
10:33 30.4 °F 28.9 °F 30.6 in Calm     94% 0 in 25 W/m2
10:38 30.6 °F 29.1 °F 30.6 in Calm     94% 0 in 28 W/m2
10:43 30.7 °F 28.9 °F 30.6 in Calm     93% 0 in 25 W/m2
10:48 30.9 °F 29.1 °F 30.6 in Calm     93% 0 in 30 W/m2
10:53 30.9 °F 29.1 °F 30.6 in Calm     93% 0 in 32 W/m2
10:58 30.9 °F 28.9 °F 30.6 in Calm     92% 0 in 26 W/m2
11:03 31.3 °F 29.3 °F 30.6 in Calm     92% 0 in 33 W/m2
11:08 31.5 °F 29.5 °F 30.6 in Calm     92% 0 in 26 W/m2
11:13 31.6 °F 29.7 °F 30.6 in Calm     92% 0 in 33 W/m2
11:18 31.8 °F 29.8 °F 30.6 in Calm     92% 0 in 40 W/m2
11:23 32 °F 29.7 °F 30.6 in Calm     91% 0 in 35 W/m2
11:28 32.2 °F 29.8 °F 30.6 in Calm     91% 0 in 47 W/m2
11:33 32.4 °F 30 °F 30.6 in Calm   1 mph 91% 0 in 33 W/m2
11:38 32.5 °F 30.2 °F 30.6 in Calm     91% 0 in 32 W/m2
11:43 33.1 °F 30.4 °F 30.6 in Calm     90% 0 in 51 W/m2
11:48 33.3 °F 30.6 °F 30.6 in Calm   1 mph 90% 0 in 49 W/m2
11:53 33.3 °F 30.4 °F 30.6 in ENE 2 mph 3 mph 89% 0 in 32 W/m2
11:58 33.4 °F 30.6 °F 30.6 in Calm   1 mph 89% 0 in 42 W/m2
12:03 33.6 °F 30.7 °F 30.6 in Calm     89% 0 in 33 W/m2
12:08 34 °F 30.7 °F 30.6 in ENE 0.9 mph 2 mph 88% 0 in 32 W/m2
12:13 34.2 °F 30.9 °F 30.6 in Calm     88% 0 in 32 W/m2
12:18 34.3 °F 30.9 °F 30.6 in Calm     87% 0 in 37 W/m2
12:23 34.3 °F 30.9 °F 30.6 in Calm   3 mph 87% 0 in 42 W/m2
12:28 34.5 °F 30.7 °F 30.6 in Calm     86% 0 in 35 W/m2
12:33 34.5 °F 30.7 °F 30.6 in Calm   2 mph 86% 0 in 51 W/m2
12:38 34.5 °F 30.6 °F 30.6 in Calm   1 mph 85% 0 in 32 W/m2
12:43 34.9 °F 30.9 °F 30.6 in Calm   1 mph 85% 0 in 35 W/m2
12:48 35.1 °F 30.9 °F 30.6 in NNE 2 mph 3 mph 85% 0 in 44 W/m2
12:53 35.4 °F 31.1 °F 30.6 in Calm   4 mph 84% 0 in 32 W/m2
12:58 36 °F 31.6 °F 30.6 in Calm   2 mph 84% 0 in 32 W/m2
13:03 36.1 °F 31.8 °F 30.6 in Calm     84% 0 in 35 W/m2
13:08 36.3 °F 31.6 °F 30.6 in Calm   4 mph 83% 0 in 39 W/m2
13:13 36.5 °F 31.8 °F 30.6 in Calm   1 mph 83% 0 in 35 W/m2
13:18 36.7 °F 31.6 °F 30.6 in Calm   2 mph 82% 0 in 30 W/m2
13:23 36.7 °F 31.6 °F 30.6 in NE 2.9 mph 4 mph 82% 0 in 28 W/m2
13:28 36.9 °F 31.8 °F 30.6 in Calm   3 mph 82% 0 in 35 W/m2
13:33 37 °F 32.4 °F 30.6 in NNE 4.9 mph 5 mph 83% 0 in 33 W/m2
13:38 37.4 °F 32.4 °F 30.6 in Calm   5 mph 82% 0 in 46 W/m2
13:43 37.6 °F 32.5 °F 30.6 in NNW 2.9 mph 3 mph 82% 0 in 33 W/m2
13:48 37.8 °F 32.2 °F 30.6 in NNE 4 mph 4 mph 80% 0 in 32 W/m2
13:53 37.9 °F 32.4 °F 30.6 in NNE 4 mph 8 mph 80% 0 in 37 W/m2
13:58 38.1 °F 32.2 °F 30.6 in NNW 2 mph 2 mph 79% 0.01 in 40 W/m2
14:03 38.3 °F 32.4 °F 30.6 in NE 2 mph 8 mph 79% 0.01 in 33 W/m2
14:08 38.7 °F 32.7 °F 30.6 in NNE 2.9 mph 6 mph 79% 0.01 in 32 W/m2
14:13 38.8 °F 32.5 °F 30.6 in NNE 8 mph 8 mph 78% 0.01 in 32 W/m2
14:18 39 °F 31.8 °F 30.5 in ENE 8.1 mph 11 mph 75% 0.01 in 44 W/m2
14:23 39.2 °F 31.3 °F 30.5 in ENE 2 mph 11 mph 73% 0.01 in 33 W/m2
14:28 39.4 °F 31.1 °F 30.5 in North 2.9 mph 5 mph 72% 0.01 in 30 W/m2
14:34 39.4 °F 30.7 °F 30.5 in NNE 4 mph 11 mph 71% 0.01 in 28 W/m2
14:39 39.6 °F 30.9 °F 30.5 in Calm   4 mph 71% 0.01 in 28 W/m2
14:44 39.6 °F 30.9 °F 30.5 in Calm   9 mph 71% 0.01 in 26 W/m2
14:49 39.4 °F 30.7 °F 30.5 in Calm   4 mph 71% 0.01 in 25 W/m2
14:54 39.4 °F 30.7 °F 30.5 in NE 2.9 mph 5 mph 71% 0.01 in 26 W/m2
14:59 39.4 °F 30.7 °F 30.5 in ENE 4.9 mph 8 mph 71% 0 in 25 W/m2
15:04 39.4 °F 30.7 °F 30.5 in NE 2.9 mph 4 mph 71% 0 in 25 W/m2
15:09 39.6 °F 30.9 °F 30.5 in ENE 4.9 mph 6 mph 71% 0 in 25 W/m2
15:14 39.4 °F 30.7 °F 30.5 in Calm   3 mph 71% 0 in 23 W/m2
15:19 39.2 °F 30.6 °F 30.5 in Calm   5 mph 71% 0 in 23 W/m2
15:24 39.2 °F 30.9 °F 30.5 in NE 0.9 mph 3 mph 72% 0 in 21 W/m2
15:29 39 °F 30.7 °F 30.5 in Calm   5 mph 72% 0 in 21 W/m2
15:34 39 °F 30.7 °F 30.5 in ENE 2.9 mph 5 mph 72% 0 in 21 W/m2
15:39 39.2 °F 30.9 °F 30.5 in Calm   1 mph 72% 0 in 21 W/m2
15:44 38.8 °F 30.9 °F 30.5 in ENE 2 mph 5 mph 73% 0 in 21 W/m2
15:50 38.7 °F 30.7 °F 30.5 in ENE 2.9 mph 3 mph 73% 0 in 21 W/m2
15:55 38.7 °F 30.7 °F 30.5 in Calm   4 mph 73% 0 in 19 W/m2
16:00 38.7 °F 30.7 °F 30.5 in Calm     73% 0 in 19 W/m2
16:05 38.5 °F 31.3 °F 30.5 in Calm   3 mph 75% 0 in 18 W/m2
16:10 38.1 °F 30.9 °F 30.5 in Calm     75% 0 in 18 W/m2
16:15 37.6 °F 30.7 °F 30.5 in Calm   1 mph 76% 0 in 18 W/m2
16:20 37.2 °F 30.7 °F 30.5 in Calm     77% 0 in 18 W/m2
16:25 37 °F 30.7 °F 30.5 in Calm     78% 0 in 16 W/m2
16:30 36.9 °F 30.6 °F 30.5 in Calm   1 mph 78% 0 in 16 W/m2
16:35 36.7 °F 30.7 °F 30.5 in NNW 2.9 mph 4 mph 79% 0 in 14 W/m2
16:40 36.9 °F 30.6 °F 30.5 in North 0.9 mph 2 mph 78% 0 in 12 W/m2
16:45 37 °F 30.7 °F 30.5 in Calm   4 mph 78% 0 in 12 W/m2
16:50 37.2 °F 30.7 °F 30.5 in Calm   2 mph 77% 0 in 11 W/m2
16:55 37.4 °F 30.9 °F 30.5 in Calm   4 mph 77% 0 in 11 W/m2
17:00 37.6 °F 31.1 °F 30.5 in Calm     77% 0 in 9 W/m2
17:05 37.6 °F 30.7 °F 30.5 in Calm     76% 0 in 7 W/m2
17:10 37.2 °F 30.4 °F 30.5 in Calm     76% 0 in 5 W/m2
17:15 37.2 °F 30.7 °F 30.5 in Calm     77% 0 in 0 W/m2
17:20 36.9 °F 30.4 °F 30.5 in Calm     77% 0 in 0 W/m2
17:25 36.5 °F 30.4 °F 30.5 in Calm     78% 0 in 0 W/m2
17:30 36.1 °F 30.2 °F 30.5 in Calm     79% 0 in 0 W/m2
17:35 35.8 °F 29.8 °F 30.5 in Calm     79% 0 in 0 W/m2
17:40 35.8 °F 30.2 °F 30.5 in Calm     80% 0 in 0 W/m2
17:45 35.6 °F 30 °F 30.5 in Calm     80% 0 in 0 W/m2
17:50 35.4 °F 29.8 °F 30.5 in Calm     80% 0 in 0 W/m2
17:55 35.2 °F 29.7 °F 30.5 in Calm     80% 0 in 0 W/m2
18:00 35.2 °F 29.7 °F 30.5 in NNW 2 mph 2 mph 80% 0 in 0 W/m2
18:05 35.2 °F 29.3 °F 30.5 in Calm     79% 0 in 0 W/m2
18:10 35.2 °F 29.3 °F 30.5 in Calm   2 mph 79% 0 in 0 W/m2
18:15 35.2 °F 29.3 °F 30.5 in Calm   2 mph 79% 0 in 0 W/m2
18:20 35.2 °F 29.3 °F 30.5 in NNW 2.9 mph 4 mph 79% 0 in 0 W/m2
18:25 35.1 °F 29.1 °F 30.5 in Calm     79% 0 in 0 W/m2
18:30 35.2 °F 29.7 °F 30.5 in North 0.9 mph 2 mph 80% 0 in 0 W/m2
18:35 35.4 °F 29.5 °F 30.5 in Calm     79% 0 in 0 W/m2
18:40 35.8 °F 29.7 °F 30.5 in Calm     78% 0 in 0 W/m2
18:45 36 °F 29.5 °F 30.5 in Calm     77% 0 in 0 W/m2
18:50 36 °F 29.5 °F 30.5 in Calm   3 mph 77% 0 in 0 W/m2
18:55 36 °F 29.5 °F 30.5 in Calm   4 mph 77% 0 in 0 W/m2
19:00 36 °F 29.8 °F 30.5 in NNE 4 mph 5 mph 78% 0 in 0 W/m2
19:05 36 °F 29.8 °F 30.5 in Calm   1 mph 78% 0 in 0 W/m2
19:10 35.8 °F 29.7 °F 30.5 in North 2 mph 3 mph 78% 0 in 0 W/m2
19:15 35.8 °F 29.8 °F 30.5 in Calm   2 mph 79% 0 in 0 W/m2
19:20 35.8 °F 29.8 °F 30.5 in Calm   1 mph 79% 0 in 0 W/m2
19:25 35.4 °F 29.5 °F 30.5 in Calm     79% 0 in 0 W/m2
19:30 35.1 °F 29.5 °F 30.5 in Calm     80% 0 in 0 W/m2
19:35 34.7 °F 29.5 °F 30.6 in Calm     81% 0 in 0 W/m2
19:40 34.5 °F 29.3 °F 30.6 in Calm     81% 0 in 0 W/m2
19:45 34.2 °F 29.3 °F 30.6 in Calm   1 mph 82% 0 in 0 W/m2
19:50 33.8 °F 29.1 °F 30.6 in Calm     83% 0 in 0 W/m2
19:55 33.6 °F 29.3 °F 30.6 in Calm     84% 0 in 0 W/m2
20:00 33.8 °F 29.5 °F 30.6 in Calm     84% 0 in 0 W/m2
20:05 34 °F 29.7 °F 30.6 in NNW 0.9 mph 1 mph 84% 0 in 0 W/m2
20:10 34 °F 29.3 °F 30.6 in Calm   1 mph 83% 0 in 0 W/m2
20:15 34 °F 29.3 °F 30.6 in Calm   2 mph 83% 0 in 0 W/m2
20:20 34 °F 29.3 °F 30.6 in Calm     83% 0 in 0 W/m2
20:25 34 °F 29.3 °F 30.6 in Calm     83% 0 in 0 W/m2
20:30 33.8 °F 29.5 °F 30.6 in Calm     84% 0 in 0 W/m2
20:35 33.4 °F 29.1 °F 30.6 in Calm   2 mph 84% 0 in 0 W/m2
20:40 33.4 °F 29.1 °F 30.6 in Calm   1 mph 84% 0 in 0 W/m2
20:45 33.3 °F 29.3 °F 30.6 in NNE 0.9 mph 1 mph 85% 0 in 0 W/m2
20:50 33.3 °F 29.3 °F 30.6 in Calm     85% 0 in 0 W/m2
20:55 33.1 °F 29.1 °F 30.6 in Calm     85% 0 in 0 W/m2
21:00 32.9 °F 28.9 °F 30.6 in NNW 0.9 mph 1 mph 85% 0 in 0 W/m2
21:05 32.7 °F 28.8 °F 30.6 in Calm     85% 0 in 0 W/m2
21:11 32.5 °F 28.8 °F 30.6 in Calm   3 mph 86% 0 in 0 W/m2
21:16 32.5 °F 28.8 °F 30.6 in Calm     86% 0 in 0 W/m2
21:21 32.5 °F 28.8 °F 30.6 in Calm     86% 0 in 0 W/m2
21:26 32.5 °F 28.8 °F 30.6 in Calm     86% 0 in 0 W/m2
21:31 32.4 °F 28.6 °F 30.6 in Calm   1 mph 86% 0 in 0 W/m2
21:36 32.4 °F 28.6 °F 30.6 in Calm   4 mph 86% 0 in 0 W/m2
21:41 32.2 °F 28.4 °F 30.6 in Calm   2 mph 86% 0 in 0 W/m2
21:46 32.2 °F 28.8 °F 30.6 in Calm   1 mph 87% 0 in 0 W/m2
21:51 32 °F 28.6 °F 30.6 in Calm   1 mph 87% 0 in 0 W/m2
21:56 32 °F 28.6 °F 30.6 in Calm     87% 0 in 0 W/m2
22:01 32 °F 28.9 °F 30.6 in North 0.9 mph 3 mph 88% 0 in 0 W/m2
22:06 32 °F 28.9 °F 30.6 in Calm   1 mph 88% 0 in 0 W/m2
22:11 31.8 °F 28.8 °F 30.6 in Calm   3 mph 88% 0 in 0 W/m2
22:16 31.8 °F 28.8 °F 30.6 in Calm   2 mph 88% 0 in 0 W/m2
22:21 31.8 °F 28.8 °F 30.6 in Calm   3 mph 88% 0 in 0 W/m2
22:26 31.8 °F 28.9 °F 30.6 in Calm   2 mph 89% 0 in 0 W/m2
22:31 31.8 °F 28.9 °F 30.6 in Calm   3 mph 89% 0 in 0 W/m2
22:37 31.8 °F 29.3 °F 30.6 in Calm   1 mph 90% 0 in 0 W/m2
22:42 31.8 °F 29.3 °F 30.6 in Calm   4 mph 90% 0 in 0 W/m2
22:47 31.8 °F 29.5 °F 30.6 in Calm   2 mph 91% 0 in 0 W/m2
22:52 31.8 °F 29.5 °F 30.6 in Calm   4 mph 91% 0 in 0 W/m2
22:57 31.8 °F 29.5 °F 30.6 in Calm     91% 0 in 0 W/m2
23:02 31.8 °F 29.5 °F 30.6 in Calm   3 mph 91% 0 in 0 W/m2
23:07 31.8 °F 29.8 °F 30.6 in Calm   1 mph 92% 0 in 0 W/m2
23:12 32 °F 30 °F 30.6 in Calm     92% 0 in 0 W/m2
23:17 31.8 °F 29.8 °F 30.6 in Calm   1 mph 92% 0 in 0 W/m2
23:22 31.8 °F 30 °F 30.6 in Calm     93% 0 in 0 W/m2
23:27 32.2 °F 30.4 °F 30.6 in Calm     93% 0 in 0 W/m2
23:32 32.2 °F 30.4 °F 30.6 in Calm   2 mph 93% 0 in 0 W/m2
23:37 32.4 °F 30.6 °F 30.6 in Calm     93% 0 in 0 W/m2
23:42 32.5 °F 30.7 °F 30.6 in Calm   2 mph 93% 0 in 0 W/m2
23:47 32.5 °F 30.7 °F 30.6 in Calm     93% 0 in 0 W/m2
23:52 32.7 °F 30.9 °F 30.6 in Calm     93% 0 in 0 W/m2
23:57 32.7 °F 30.9 °F 30.6 in Calm     93% 0 in 0 W/m2
Juneau County Weather
Compliments of Weather Underground - 4 mb